Time;durP1;ratioP1;P1;durP2;ratioP2;P2;SDS_P1;SDS_P2;PMS_P1;PMS_P2;Temp;Humidity;BMP_temperature;BMP_pressure;BME280_temperature;BME280_humidity;BME280_pressure;Samples;Min_cycle;Max_cycle;Signal;HPM_P1;HPM_P2
2023/04/13 00:01:47;;;;;;;11.05;6.00;;;5.90;99.90;;;;;;5090947;28;20196;-60
2023/04/13 00:04:13;;;;;;;9.30;5.63;;;5.80;99.90;;;;;;5091215;28;20284;-62
2023/04/13 00:06:41;;;;;;;9.85;6.72;;;5.80;99.90;;;;;;5090538;28;20201;-60
2023/04/13 00:09:08;;;;;;;6.50;5.47;;;5.70;99.90;;;;;;5091423;28;20209;-59
2023/04/13 00:11:37;;;;;;;11.73;5.85;;;5.70;99.90;;;;;;5088740;28;20545;-61
2023/04/13 00:14:05;;;;;;;9.98;6.60;;;5.60;99.90;;;;;;5089961;28;20193;-60
2023/04/13 00:16:32;;;;;;;9.50;6.78;;;5.50;99.90;;;;;;5088046;28;20200;-61
2023/04/13 00:18:59;;;;;;;14.02;8.75;;;5.50;99.90;;;;;;5088165;28;20284;-61
2023/04/13 00:21:26;;;;;;;13.73;7.68;;;5.40;99.90;;;;;;5087710;28;20201;-61
2023/04/13 00:23:53;;;;;;;12.02;8.73;;;5.40;99.90;;;;;;5086267;28;20227;-61
2023/04/13 00:26:20;;;;;;;12.50;8.98;;;5.40;99.90;;;;;;5081869;28;20223;-61
2023/04/13 00:28:49;;;;;;;14.77;8.57;;;5.40;99.90;;;;;;5078017;28;20224;-60
2023/04/13 00:31:15;;;;;;;16.73;8.48;;;5.50;99.90;;;;;;5077792;28;20212;-60
2023/04/13 00:33:42;;;;;;;16.50;10.27;;;5.50;99.90;;;;;;5078520;28;20244;-60
2023/04/13 00:36:09;;;;;;;14.20;9.60;;;5.50;99.90;;;;;;5078111;28;20201;-60
2023/04/13 00:38:37;;;;;;;13.77;10.02;;;5.50;99.90;;;;;;5078248;28;20224;-60
2023/04/13 00:41:04;;;;;;;15.93;9.73;;;5.50;99.90;;;;;;5078288;28;20236;-60
2023/04/13 00:43:31;;;;;;;16.33;9.80;;;5.50;99.90;;;;;;5078421;28;20594;-60
2023/04/13 00:46:00;;;;;;;12.05;9.35;;;5.50;99.90;;;;;;5080358;28;20288;-61
2023/04/13 00:48:27;;;;;;;14.40;9.35;;;5.40;99.90;;;;;;5077219;28;20243;-60
2023/04/13 00:50:54;;;;;;;16.27;8.82;;;5.40;99.90;;;;;;5077092;28;20197;-59
2023/04/13 00:53:23;;;;;;;14.20;8.10;;;5.40;99.90;;;;;;5076115;28;20201;-61
2023/04/13 00:55:51;;;;;;;13.70;8.73;;;5.40;99.90;;;;;;5076062;28;20208;-60
2023/04/13 00:58:18;;;;;;;13.85;8.52;;;5.40;99.90;;;;;;5075691;28;20315;-60
2023/04/13 01:00:45;;;;;;;16.33;8.90;;;5.30;99.90;;;;;;5076219;28;20201;-59
2023/04/13 01:03:13;;;;;;;12.38;8.38;;;5.30;99.90;;;;;;5075947;28;20577;-60
2023/04/13 01:05:49;;;;;;;12.05;8.57;;;5.30;99.90;;;;;;5076413;28;20255;-60
2023/04/13 01:08:21;;;;;;;14.35;8.93;;;5.30;99.90;;;;;;5076024;28;20221;-60
2023/04/13 01:10:54;;;;;;;16.45;8.02;;;5.20;99.90;;;;;;5076299;28;20188;-60
2023/04/13 01:13:25;;;;;;;13.23;8.02;;;5.20;99.90;;;;;;5076113;28;20186;-61
2023/04/13 01:16:01;;;;;;;11.90;7.82;;;5.20;99.90;;;;;;5075940;28;20189;-60
2023/04/13 01:18:32;;;;;;;19.58;9.57;;;5.10;99.90;;;;;;5075478;28;20220;-60
2023/04/13 01:21:00;;;;;;;12.95;8.35;;;5.10;99.90;;;;;;5076001;28;20250;-60
2023/04/13 01:23:35;;;;;;;11.43;7.85;;;5.10;99.90;;;;;;5076158;28;20201;-60
2023/04/13 01:26:05;;;;;;;15.18;9.20;;;5.10;99.90;;;;;;5076880;28;20597;-60
2023/04/13 01:28:35;;;;;;;13.95;9.38;;;5.10;99.90;;;;;;5075230;28;20229;-60
2023/04/13 01:31:04;;;;;;;21.13;9.18;;;5.10;99.90;;;;;;5075338;28;20203;-60
2023/04/13 01:33:32;;;;;;;12.48;8.35;;;5.10;99.90;;;;;;5075192;28;20208;-60
2023/04/13 01:36:00;;;;;;;11.93;7.93;;;5.10;99.90;;;;;;5076595;28;20322;-60
2023/04/13 01:38:27;;;;;;;12.70;8.55;;;5.10;99.90;;;;;;5074869;28;20256;-60
2023/04/13 01:40:54;;;;;;;13.40;8.35;;;5.00;99.90;;;;;;5075457;28;20282;-60
2023/04/13 01:43:22;;;;;;;13.75;9.20;;;5.10;99.90;;;;;;5076121;28;20201;-60
2023/04/13 01:45:59;;;;;;;13.00;8.48;;;5.00;99.90;;;;;;5076149;28;20205;-59
2023/04/13 01:48:30;;;;;;;13.98;8.30;;;5.00;99.90;;;;;;5076741;28;20758;-60
2023/04/13 01:51:00;;;;;;;10.77;6.70;;;5.00;99.90;;;;;;5076158;28;20228;-59
2023/04/13 01:53:31;;;;;;;15.43;8.10;;;5.10;99.90;;;;;;5076763;28;20185;-60
2023/04/13 01:55:59;;;;;;;12.75;8.27;;;5.00;99.90;;;;;;5077167;28;20190;-60
2023/04/13 01:58:27;;;;;;;12.05;7.15;;;5.10;99.90;;;;;;5077529;28;20231;-60
2023/04/13 02:00:56;;;;;;;14.02;8.30;;;5.10;99.90;;;;;;5076898;28;20705;-61
2023/04/13 02:03:22;;;;;;;10.80;7.57;;;5.20;99.90;;;;;;5075806;28;20207;-61
2023/04/13 02:05:50;;;;;;;11.88;6.80;;;5.10;99.90;;;;;;5075299;28;20299;-60
2023/04/13 02:08:17;;;;;;;10.88;7.65;;;5.10;99.90;;;;;;5076244;28;20228;-60
2023/04/13 02:10:45;;;;;;;11.05;8.23;;;5.10;99.90;;;;;;5075642;28;20201;-60
2023/04/13 02:13:12;;;;;;;10.45;7.40;;;5.10;99.90;;;;;;5075661;28;20201;-60
2023/04/13 02:15:40;;;;;;;10.70;7.43;;;5.10;99.90;;;;;;5075810;28;20294;-59
2023/04/13 02:18:09;;;;;;;11.85;7.72;;;5.20;99.90;;;;;;5076887;28;20228;-60
2023/04/13 02:20:42;;;;;;;9.35;7.82;;;5.20;99.90;;;;;;5077877;28;20208;-60
2023/04/13 02:23:09;;;;;;;13.38;7.93;;;5.20;99.90;;;;;;5080956;28;20570;-60
2023/04/13 02:25:36;;;;;;;9.18;7.22;;;5.20;99.90;;;;;;5081047;28;20227;-60
2023/04/13 02:28:03;;;;;;;8.40;7.50;;;5.20;99.90;;;;;;5101003;22;20224;-62
2023/04/13 02:30:30;;;;;;;10.68;8.23;;;5.20;99.90;;;;;;5074126;28;20209;-62
2023/04/13 02:32:57;;;;;;;11.10;6.97;;;5.20;99.90;;;;;;5075759;28;20291;-62
2023/04/13 02:35:26;;;;;;;11.20;7.55;;;5.20;99.90;;;;;;5074734;28;20204;-62
2023/04/13 02:37:53;;;;;;;10.40;6.55;;;5.20;99.90;;;;;;5073814;28;20228;-64
2023/04/13 02:40:19;;;;;;;9.60;7.82;;;5.20;99.90;;;;;;5073404;28;20235;-62
2023/04/13 02:42:47;;;;;;;13.10;8.30;;;5.20;99.90;;;;;;5073808;28;20209;-63
2023/04/13 02:45:16;;;;;;;13.25;7.20;;;5.20;99.90;;;;;;5073430;28;20253;-61
2023/04/13 02:47:43;;;;;;;9.13;6.03;;;5.20;99.90;;;;;;5073587;28;20228;-62
2023/04/13 02:50:11;;;;;;;14.75;8.57;;;5.20;99.90;;;;;;5073687;28;20204;-62
2023/04/13 02:52:39;;;;;;;11.52;6.55;;;5.20;99.90;;;;;;5073784;28;20208;-63
2023/04/13 02:55:07;;;;;;;8.18;7.03;;;5.20;99.90;;;;;;5073673;28;20260;-62
2023/04/13 02:57:34;;;;;;;9.23;7.20;;;5.20;99.90;;;;;;5073356;28;20295;-62
2023/04/13 03:00:06;;;;;;;7.95;6.13;;;5.20;99.90;;;;;;5073732;28;20228;-62
2023/04/13 03:02:34;;;;;;;9.90;6.75;;;5.20;99.90;;;;;;5074278;28;20189;-63
2023/04/13 03:05:02;;;;;;;10.30;6.60;;;5.20;99.90;;;;;;5073107;28;20319;-61
2023/04/13 03:07:30;;;;;;;10.80;7.20;;;5.10;99.90;;;;;;5073606;28;20228;-62
2023/04/13 03:10:00;;;;;;;9.80;7.47;;;5.10;99.90;;;;;;5073984;28;20232;-62
2023/04/13 03:12:27;;;;;;;9.18;6.47;;;5.10;99.90;;;;;;5073625;28;20693;-62
2023/04/13 03:14:53;;;;;;;10.93;6.00;;;5.10;99.90;;;;;;5074426;28;20225;-62
2023/04/13 03:17:20;;;;;;;16.27;7.00;;;5.20;99.90;;;;;;5074291;28;20220;-62
2023/04/13 03:19:48;;;;;;;10.15;6.70;;;5.10;99.90;;;;;;5074489;28;20201;-62
2023/04/13 03:22:15;;;;;;;7.53;5.80;;;5.10;99.90;;;;;;5075504;28;20200;-62
2023/04/13 03:24:42;;;;;;;9.10;6.95;;;5.10;99.90;;;;;;5074711;28;20721;-62
2023/04/13 03:27:10;;;;;;;8.90;6.35;;;5.10;99.90;;;;;;5075244;28;20251;-62
2023/04/13 03:29:37;;;;;;;7.50;5.70;;;5.10;99.90;;;;;;5076242;28;20204;-61
2023/04/13 03:32:03;;;;;;;9.02;5.85;;;5.10;99.90;;;;;;5076977;28;20209;-62
2023/04/13 03:34:30;;;;;;;10.23;6.05;;;5.10;99.90;;;;;;5076611;28;20682;-62
2023/04/13 03:36:57;;;;;;;9.38;6.63;;;5.10;99.90;;;;;;5076734;28;20205;-64
2023/04/13 03:39:24;;;;;;;7.50;5.85;;;5.20;99.90;;;;;;5077253;28;20232;-62
2023/04/13 03:41:51;;;;;;;9.30;5.35;;;5.10;99.90;;;;;;5076477;28;20239;-62
2023/04/13 03:44:19;;;;;;;7.57;6.00;;;5.20;99.90;;;;;;5079463;28;20217;-62
2023/04/13 03:46:46;;;;;;;9.68;5.70;;;5.20;99.90;;;;;;5079155;28;20208;-62
2023/04/13 03:49:13;;;;;;;9.68;4.90;;;5.20;99.90;;;;;;5082710;28;20634;-62
2023/04/13 03:51:40;;;;;;;5.45;4.30;;;5.20;99.90;;;;;;5076523;28;20201;-61
2023/04/13 03:54:06;;;;;;;7.13;4.00;;;5.20;99.90;;;;;;5076176;28;20211;-63
2023/04/13 03:56:33;;;;;;;6.38;4.32;;;5.20;99.90;;;;;;5076042;28;20209;-62
2023/04/13 03:59:00;;;;;;;7.60;3.80;;;5.20;99.90;;;;;;5077075;28;20225;-61
2023/04/13 04:01:28;;;;;;;6.18;4.05;;;5.20;99.90;;;;;;5076447;28;20205;-61
2023/04/13 04:03:56;;;;;;;4.82;3.80;;;5.20;99.90;;;;;;5076755;28;20199;-62
2023/04/13 04:06:23;;;;;;;4.40;4.00;;;5.20;99.90;;;;;;5076632;28;20597;-61
2023/04/13 04:11:31;;;;;;;6.78;4.43;;;5.20;99.90;;;;;;5111693;27;1284211;-62
2023/04/13 04:13:57;;;;;;;5.18;3.60;;;5.20;99.90;;;;;;5132054;28;20199;-63
2023/04/13 04:16:24;;;;;;;5.70;3.75;;;5.20;99.90;;;;;;5131838;28;20203;-62
2023/04/13 04:18:51;;;;;;;3.38;3.08;;;5.30;99.90;;;;;;5116584;28;20223;-62
2023/04/13 04:21:20;;;;;;;3.88;3.15;;;5.30;99.90;;;;;;5111698;28;20664;-63
2023/04/13 04:23:47;;;;;;;4.18;3.53;;;5.40;99.90;;;;;;5111156;28;20206;-63
2023/04/13 04:26:14;;;;;;;5.32;3.60;;;5.40;99.90;;;;;;5111229;28;20584;-63
2023/04/13 04:28:43;;;;;;;3.90;3.05;;;5.50;99.90;;;;;;5111023;28;20219;-62
2023/04/13 04:31:10;;;;;;;3.35;2.60;;;5.60;99.90;;;;;;5111169;28;20219;-64
2023/04/13 04:33:38;;;;;;;4.00;3.25;;;5.60;99.90;;;;;;5111517;28;20265;-63
2023/04/13 04:36:06;;;;;;;4.45;3.00;;;5.70;99.90;;;;;;5111783;28;20324;-62
2023/04/13 04:38:32;;;;;;;3.90;3.05;;;5.70;99.90;;;;;;5111581;28;20306;-63
2023/04/13 04:41:00;;;;;;;2.47;2.25;;;5.80;99.90;;;;;;5111577;28;20263;-62
2023/04/13 04:43:29;;;;;;;4.03;3.00;;;5.80;99.90;;;;;;5111688;28;20232;-63
2023/04/13 04:45:57;;;;;;;4.15;2.53;;;5.80;99.90;;;;;;5111577;28;20208;-62
2023/04/13 04:48:25;;;;;;;3.55;2.45;;;5.90;99.90;;;;;;5110766;28;20273;-63
2023/04/13 04:50:52;;;;;;;4.45;2.65;;;5.90;99.90;;;;;;5110175;28;20242;-64
2023/04/13 04:53:20;;;;;;;3.60;2.65;;;6.00;99.90;;;;;;5111078;28;20223;-65
2023/04/13 04:55:46;;;;;;;3.15;1.95;;;6.10;99.90;;;;;;5110800;28;20291;-64
2023/04/13 04:58:13;;;;;;;2.15;1.77;;;6.20;99.90;;;;;;5110840;28;20223;-63
2023/04/13 05:00:40;;;;;;;3.75;2.00;;;6.30;99.90;;;;;;5110864;28;20235;-67
2023/04/13 05:03:08;;;;;;;1.90;1.50;;;6.40;99.90;;;;;;5110560;28;20235;-63
2023/04/13 05:05:35;;;;;;;4.05;2.03;;;6.40;99.90;;;;;;5110406;28;20206;-64
2023/04/13 05:08:02;;;;;;;1.70;1.50;;;6.50;99.90;;;;;;5110390;28;20228;-64
2023/04/13 05:10:29;;;;;;;3.47;1.90;;;6.50;99.90;;;;;;5109987;28;20215;-65
2023/04/13 05:12:56;;;;;;;3.22;1.67;;;6.60;99.90;;;;;;5109853;28;20545;-64
2023/04/13 05:15:23;;;;;;;1.90;1.48;;;6.60;99.90;;;;;;5109825;28;20210;-63
2023/04/13 05:17:50;;;;;;;4.03;1.70;;;6.60;99.90;;;;;;5109930;28;20246;-65
2023/04/13 05:20:19;;;;;;;2.58;1.77;;;6.70;99.90;;;;;;5110235;28;20249;-61
2023/04/13 05:22:45;;;;;;;2.65;1.60;;;6.70;99.90;;;;;;5097604;28;20201;-64
2023/04/13 05:25:13;;;;;;;1.88;1.52;;;6.80;99.90;;;;;;5096765;28;20291;-64
2023/04/13 05:27:40;;;;;;;2.90;1.85;;;6.80;99.90;;;;;;5107233;28;20295;-64
2023/04/13 05:30:08;;;;;;;2.97;1.65;;;6.90;99.90;;;;;;5098008;28;20212;-64
2023/04/13 05:32:36;;;;;;;2.40;1.33;;;7.00;99.90;;;;;;5096712;28;20197;-65
2023/04/13 05:35:04;;;;;;;1.77;1.67;;;7.00;99.90;;;;;;5096696;28;20226;-64
2023/04/13 05:37:32;;;;;;;4.38;1.38;;;7.20;99.90;;;;;;5095977;28;20301;-65
2023/04/13 05:39:59;;;;;;;1.73;1.60;;;7.30;99.90;;;;;;5096422;28;20196;-62
2023/04/13 05:42:26;;;;;;;3.28;1.85;;;7.30;99.90;;;;;;5096885;28;20204;-63
2023/04/13 05:44:52;;;;;;;3.35;1.92;;;7.40;99.90;;;;;;5105039;28;20211;-65
2023/04/13 05:47:22;;;;;;;1.70;1.40;;;7.50;99.90;;;;;;5096131;28;20224;-65
2023/04/13 05:49:49;;;;;;;1.50;1.40;;;7.60;99.90;;;;;;5096144;28;20615;-65
2023/04/13 05:52:15;;;;;;;1.58;1.30;;;7.70;99.90;;;;;;5096211;28;20287;-66
2023/04/13 05:54:44;;;;;;;1.63;1.13;;;7.70;99.90;;;;;;5095886;28;20565;-66
2023/04/13 05:57:10;;;;;;;4.30;2.13;;;7.80;99.90;;;;;;5096173;28;20207;-65
2023/04/13 05:59:37;;;;;;;1.67;1.08;;;7.90;99.90;;;;;;5097054;28;20199;-66
2023/04/13 06:02:04;;;;;;;2.50;1.25;;;8.00;99.90;;;;;;5096704;28;20205;-65
2023/04/13 06:05:05;;;;;;;4.10;1.80;;;8.30;99.90;;;;;;5098240;28;20288;-60
2023/04/13 06:07:33;;;;;;;2.10;1.30;;;8.60;99.90;;;;;;5099537;28;20223;-62
2023/04/13 06:10:01;;;;;;;2.72;1.60;;;9.00;99.90;;;;;;5097945;28;20643;-62
2023/04/13 06:12:28;;;;;;;1.23;1.10;;;9.20;99.90;;;;;;5097395;28;20185;-62
2023/04/13 06:14:56;;;;;;;3.63;1.52;;;9.40;99.90;;;;;;5096202;28;20673;-61
2023/04/13 06:17:23;;;;;;;2.97;1.35;;;9.60;99.90;;;;;;5096206;28;20224;-63
2023/04/13 06:19:50;;;;;;;3.10;1.73;;;9.80;99.90;;;;;;5096380;28;20204;-62
2023/04/13 06:22:16;;;;;;;2.75;1.40;;;9.90;99.90;;;;;;5098948;28;20200;-63
2023/04/13 06:24:43;;;;;;;6.85;2.13;;;10.00;99.90;;;;;;5096851;28;20200;-63
2023/04/13 06:27:12;;;;;;;2.20;1.40;;;10.20;99.90;;;;;;5095820;28;20212;-63
2023/04/13 06:29:39;;;;;;;2.83;1.30;;;10.40;99.90;;;;;;5096548;28;20450;-62
2023/04/13 06:32:06;;;;;;;2.13;1.23;;;10.40;99.90;;;;;;5095393;28;20488;-62
2023/04/13 06:34:34;;;;;;;1.80;1.10;;;10.50;99.90;;;;;;5094557;28;20460;-62
2023/04/13 06:37:01;;;;;;;2.87;1.30;;;10.40;99.90;;;;;;5095407;28;20490;-62
2023/04/13 06:39:28;;;;;;;2.10;1.33;;;10.40;99.90;;;;;;5095433;28;20513;-62
2023/04/13 06:41:56;;;;;;;3.10;1.10;;;10.50;99.90;;;;;;5096560;28;20506;-61
2023/04/13 06:44:24;;;;;;;2.03;1.00;;;10.70;99.90;;;;;;5095810;28;20462;-61
2023/04/13 06:46:51;;;;;;;2.70;1.20;;;10.90;99.90;;;;;;5095632;28;20442;-61
2023/04/13 06:49:18;;;;;;;3.50;1.30;;;11.00;98.80;;;;;;5095022;28;20461;-60
2023/04/13 06:51:45;;;;;;;1.40;0.90;;;11.10;97.80;;;;;;5095931;28;20861;-62
2023/04/13 06:54:11;;;;;;;2.87;0.90;;;11.10;96.70;;;;;;5095340;28;20446;-61
2023/04/13 06:56:39;;;;;;;2.47;1.13;;;11.00;95.70;;;;;;5095011;28;20443;-62
2023/04/13 06:59:05;;;;;;;1.90;1.10;;;10.80;95.70;;;;;;5095946;28;20902;-62
2023/04/13 07:01:34;;;;;;;0.93;0.87;;;10.70;95.90;;;;;;5095830;28;20443;-62
2023/04/13 07:04:01;;;;;;;2.77;1.10;;;10.70;95.90;;;;;;5095668;28;20819;-63
2023/04/13 07:06:28;;;;;;;2.80;1.17;;;10.60;95.70;;;;;;5103528;28;20553;-62
2023/04/13 07:08:55;;;;;;;2.07;1.10;;;10.80;95.40;;;;;;5101754;28;20454;-61
2023/04/13 07:11:24;;;;;;;2.03;1.20;;;10.90;94.10;;;;;;5099009;28;20487;-64
2023/04/13 07:13:52;;;;;;;4.67;1.73;;;10.80;93.10;;;;;;5100743;28;20450;-62
2023/04/13 07:16:24;;;;;;;1.00;0.93;;;10.70;92.60;;;;;;5101224;28;20431;-62
2023/04/13 07:18:52;;;;;;;2.30;1.30;;;10.50;92.50;;;;;;5102692;28;20505;-61
2023/04/13 07:21:20;;;;;;;4.43;1.63;;;10.50;93.30;;;;;;5098447;28;20443;-62
2023/04/13 07:23:47;;;;;;;1.53;0.90;;;10.60;93.40;;;;;;5101178;28;20450;-63
2023/04/13 07:26:14;;;;;;;2.77;1.00;;;10.70;92.70;;;;;;5098957;28;20446;-61
2023/04/13 07:28:41;;;;;;;3.37;1.57;;;10.90;92.30;;;;;;5098995;28;20473;-61
2023/04/13 07:31:08;;;;;;;2.90;0.90;;;11.00;91.70;;;;;;5102120;28;21032;-60
2023/04/13 07:33:35;;;;;;;3.50;1.43;;;11.00;91.00;;;;;;5103054;28;20496;-61
2023/04/13 07:36:03;;;;;;;1.50;1.17;;;10.90;90.50;;;;;;5101564;28;20514;-62
2023/04/13 07:38:30;;;;;;;1.87;1.20;;;10.90;90.70;;;;;;5101070;28;20462;-61
2023/04/13 07:40:57;;;;;;;1.80;1.07;;;10.90;90.80;;;;;;5105161;28;21004;-61
2023/04/13 07:43:25;;;;;;;3.23;1.43;;;10.80;90.70;;;;;;5106147;28;20525;-61
2023/04/13 07:45:51;;;;;;;1.63;1.27;;;10.80;90.80;;;;;;5102578;28;20447;-61
2023/04/13 07:48:18;;;;;;;2.50;1.30;;;10.80;91.10;;;;;;5103240;28;20464;-62
2023/04/13 07:50:48;;;;;;;4.17;1.30;;;10.80;90.80;;;;;;5105272;28;20474;-61
2023/04/13 07:53:16;;;;;;;1.33;0.87;;;10.90;91.00;;;;;;5102137;28;20451;-62
2023/04/13 07:55:43;;;;;;;3.80;1.20;;;10.80;90.60;;;;;;5102210;28;20453;-62
2023/04/13 07:58:09;;;;;;;1.53;1.17;;;10.90;90.50;;;;;;5094696;28;21018;-63
2023/04/13 08:00:36;;;;;;;2.70;1.67;;;10.80;90.50;;;;;;5095141;28;20438;-63
2023/04/13 08:03:05;;;;;;;1.27;1.07;;;10.80;90.30;;;;;;5095429;28;20534;-63
2023/04/13 08:05:31;;;;;;;3.30;0.93;;;10.80;90.30;;;;;;5094731;28;20469;-62
2023/04/13 08:07:58;;;;;;;1.67;1.17;;;10.80;90.10;;;;;;5094861;28;20469;-63
2023/04/13 08:10:26;;;;;;;2.80;1.00;;;10.80;89.80;;;;;;5094656;28;20454;-62
2023/04/13 08:12:53;;;;;;;2.33;1.10;;;10.80;89.70;;;;;;5094865;28;20446;-62
2023/04/13 08:15:20;;;;;;;1.43;0.90;;;10.80;89.40;;;;;;5094692;28;20464;-62
2023/04/13 08:17:47;;;;;;;3.53;1.27;;;10.70;89.30;;;;;;5096382;28;20462;-62
2023/04/13 08:20:14;;;;;;;2.50;1.00;;;10.70;89.20;;;;;;5096700;28;20449;-62
2023/04/13 08:22:41;;;;;;;1.33;1.17;;;10.70;89.20;;;;;;5096217;28;20449;-63
2023/04/13 08:25:09;;;;;;;1.20;0.90;;;10.70;88.70;;;;;;5095897;28;20457;-62
2023/04/13 08:27:37;;;;;;;2.70;1.10;;;10.60;87.70;;;;;;5095882;28;21040;-62
2023/04/13 08:30:06;;;;;;;2.03;1.00;;;10.60;88.00;;;;;;5096362;28;20446;-63
2023/04/13 08:32:33;;;;;;;2.70;1.60;;;10.50;88.20;;;;;;5095994;28;20480;-62
2023/04/13 08:35:05;;;;;;;3.27;1.70;;;10.50;89.00;;;;;;5096745;28;20525;-63
2023/04/13 08:37:33;;;;;;;1.67;0.93;;;10.70;89.50;;;;;;5096938;28;20474;-62
2023/04/13 08:40:00;;;;;;;1.57;0.90;;;10.80;88.50;;;;;;5096683;28;20453;-62
2023/04/13 08:42:27;;;;;;;3.60;1.27;;;10.90;88.00;;;;;;5095742;28;20443;-61
2023/04/13 08:44:58;;;;;;;1.37;1.10;;;11.00;87.80;;;;;;5096681;28;20537;-61
2023/04/13 08:47:26;;;;;;;1.77;1.13;;;11.20;87.20;;;;;;5098895;28;20466;-60
2023/04/13 08:49:57;;;;;;;2.10;1.00;;;11.40;86.00;;;;;;5094983;28;20446;-61
2023/04/13 08:52:24;;;;;;;2.00;1.10;;;11.50;84.30;;;;;;5094581;28;20964;-62
2023/04/13 08:54:53;;;;;;;1.70;0.90;;;11.60;83.20;;;;;;5094908;28;20446;-61
2023/04/13 08:57:21;;;;;;;2.40;1.27;;;11.70;82.30;;;;;;5099020;28;20473;-62
2023/04/13 08:59:51;;;;;;;1.20;0.90;;;11.80;81.20;;;;;;5100953;28;20450;-61
2023/04/13 09:02:25;;;;;;;1.10;0.80;;;11.80;80.70;;;;;;5103439;28;20473;-63
2023/04/13 09:04:54;;;;;;;1.90;1.00;;;11.90;80.10;;;;;;5098029;28;20495;-62
2023/04/13 09:07:26;;;;;;;1.77;0.87;;;12.00;79.40;;;;;;5097805;28;20834;-62
2023/04/13 09:09:56;;;;;;;1.50;0.73;;;12.00;78.40;;;;;;5097461;28;20476;-62
2023/04/13 09:12:23;;;;;;;1.10;0.80;;;11.90;78.30;;;;;;5098597;28;20466;-61
2023/04/13 09:14:50;;;;;;;3.33;1.10;;;11.80;79.00;;;;;;5099696;28;20462;-63
2023/04/13 09:17:29;;;;;;;1.43;1.03;;;11.80;80.30;;;;;;5102442;28;20442;-62
2023/04/13 09:19:56;;;;;;;3.23;1.00;;;11.80;80.60;;;;;;5104483;28;20438;-61
2023/04/13 09:22:24;;;;;;;2.03;0.90;;;11.80;80.90;;;;;;5101130;28;20465;-62
2023/04/13 09:24:51;;;;;;;1.77;0.97;;;11.80;81.80;;;;;;5100744;28;20858;-64
2023/04/13 09:27:19;;;;;;;1.67;1.00;;;11.80;82.30;;;;;;5100970;28;20496;-62
2023/04/13 09:29:51;;;;;;;4.40;1.43;;;11.90;82.00;;;;;;5100098;28;20442;-62
2023/04/13 09:32:22;;;;;;;1.10;0.80;;;12.00;81.60;;;;;;5098576;28;20482;-61
2023/04/13 09:35:03;;;;;;;3.80;1.10;;;12.00;79.70;;;;;;5098028;28;20449;-63
2023/04/13 09:37:31;;;;;;;1.80;1.07;;;12.10;80.00;;;;;;5097449;28;20462;-63
2023/04/13 09:40:08;;;;;;;1.20;0.90;;;12.30;78.80;;;;;;5097104;28;20484;-63
2023/04/13 09:42:36;;;;;;;1.90;1.23;;;12.40;76.60;;;;;;5097628;28;20446;-62
2023/04/13 09:45:03;;;;;;;1.67;1.00;;;12.30;74.90;;;;;;5099152;28;20454;-61
2023/04/13 09:47:36;;;;;;;1.93;1.00;;;12.40;75.40;;;;;;5101418;28;20549;-62
2023/04/13 09:50:06;;;;;;;2.60;1.70;;;12.40;74.10;;;;;;5096525;28;20426;-62
2023/04/13 09:52:33;;;;;;;1.70;0.93;;;12.60;74.30;;;;;;5096424;28;20488;-62
2023/04/13 09:55:00;;;;;;;1.70;0.90;;;12.80;73.40;;;;;;5095947;28;20538;-63
2023/04/13 09:57:28;;;;;;;2.90;1.10;;;13.10;72.50;;;;;;5095913;28;20553;-63
2023/04/13 09:59:56;;;;;;;4.87;2.17;;;13.10;69.60;;;;;;5095864;28;20474;-62
2023/04/13 10:02:23;;;;;;;4.30;1.77;;;13.00;69.60;;;;;;5096338;28;20525;-63
2023/04/13 10:04:50;;;;;;;2.60;1.40;;;13.20;70.30;;;;;;5096748;28;20453;-62
2023/04/13 10:07:18;;;;;;;2.03;1.17;;;13.50;69.40;;;;;;5099645;28;20477;-63
2023/04/13 10:09:45;;;;;;;1.60;1.20;;;13.80;67.70;;;;;;5098873;28;20465;-63
2023/04/13 10:12:13;;;;;;;1.30;1.20;;;14.00;65.40;;;;;;5098305;28;20501;-63
2023/04/13 10:14:43;;;;;;;1.47;1.20;;;14.20;63.90;;;;;;5097006;28;20446;-63
2023/04/13 10:17:38;;;;;;;1.87;1.50;;;14.30;62.20;;;;;;5100526;28;20495;-63
2023/04/13 10:20:11;;;;;;;4.10;1.60;;;14.30;61.40;;;;;;5098119;28;20426;-63
2023/04/13 10:22:43;;;;;;;2.43;1.30;;;14.30;61.10;;;;;;5101024;28;20426;-63
2023/04/13 10:25:13;;;;;;;1.10;1.00;;;14.20;60.40;;;;;;5099009;28;20423;-63
2023/04/13 10:27:41;;;;;;;8.80;1.67;;;14.20;60.10;;;;;;5097449;28;20466;-63
2023/04/13 10:30:16;;;;;;;1.60;1.20;;;14.20;60.00;;;;;;5097345;28;20508;-62
2023/04/13 10:32:43;;;;;;;2.20;0.97;;;14.30;59.80;;;;;;5096542;28;20481;-62
2023/04/13 10:35:12;;;;;;;1.77;1.30;;;14.50;59.50;;;;;;5096636;28;20446;-62
2023/04/13 10:37:41;;;;;;;1.43;1.30;;;14.50;58.10;;;;;;5098291;28;20463;-61
2023/04/13 10:40:12;;;;;;;1.70;1.27;;;14.40;58.10;;;;;;5094694;28;20472;-61
2023/04/13 10:42:43;;;;;;;1.80;1.23;;;14.30;58.30;;;;;;5095054;28;20430;-61
2023/04/13 10:45:19;;;;;;;1.90;1.30;;;14.30;58.30;;;;;;5095141;28;20791;-62
2023/04/13 10:47:46;;;;;;;2.10;1.23;;;14.50;57.80;;;;;;5095965;28;20461;-63
2023/04/13 10:50:17;;;;;;;3.90;1.77;;;14.60;57.00;;;;;;5094819;28;20959;-63
2023/04/13 10:53:00;;;;;;;1.30;1.20;;;14.60;56.80;;;;;;5095206;28;20535;-63
2023/04/13 10:55:27;;;;;;;1.97;1.20;;;14.30;56.30;;;;;;5094991;28;20545;-63
2023/04/13 10:57:55;;;;;;;1.20;1.10;;;14.20;56.70;;;;;;5095429;28;20472;-63
2023/04/13 11:00:23;;;;;;;2.23;1.37;;;14.30;56.60;;;;;;5096910;28;20442;-61
2023/04/13 11:02:50;;;;;;;1.30;1.10;;;14.60;56.50;;;;;;5096745;28;20447;-63
2023/04/13 11:05:19;;;;;;;1.93;1.53;;;15.00;55.70;;;;;;5098739;28;20545;-63
2023/04/13 11:07:47;;;;;;;2.03;1.83;;;15.10;54.20;;;;;;5098645;28;20470;-63
2023/04/13 11:10:15;;;;;;;1.43;1.20;;;14.90;53.60;;;;;;5099958;28;20454;-62
2023/04/13 11:12:50;;;;;;;2.93;1.50;;;14.70;53.70;;;;;;5101244;28;20572;-63
2023/04/13 11:15:19;;;;;;;1.30;1.00;;;14.60;53.70;;;;;;5100776;28;20423;-62
2023/04/13 11:17:51;;;;;;;1.20;1.10;;;14.70;54.00;;;;;;5102798;28;20532;-61
2023/04/13 11:20:18;;;;;;;1.57;1.10;;;14.80;53.40;;;;;;5102120;28;20419;-62
2023/04/13 11:22:45;;;;;;;2.50;1.17;;;14.80;53.00;;;;;;5105374;28;20438;-63
2023/04/13 11:25:12;;;;;;;1.10;0.97;;;14.90;53.00;;;;;;5102089;28;20450;-62
2023/04/13 11:27:41;;;;;;;3.63;1.50;;;14.90;52.20;;;;;;5094747;28;20527;-62
2023/04/13 11:30:09;;;;;;;2.37;1.50;;;14.70;51.50;;;;;;5094733;28;20442;-62
2023/04/13 11:32:40;;;;;;;5.03;1.77;;;14.70;51.70;;;;;;5094241;28;20536;-63
2023/04/13 11:35:08;;;;;;;1.60;1.20;;;14.70;51.30;;;;;;5095091;28;20427;-62
2023/04/13 11:37:38;;;;;;;3.43;1.43;;;14.90;50.90;;;;;;5095285;28;20474;-62
2023/04/13 11:40:13;;;;;;;1.40;1.30;;;15.10;50.30;;;;;;5095044;28;20468;-62
2023/04/13 11:42:43;;;;;;;1.93;1.27;;;15.10;49.60;;;;;;5094484;28;20908;-63
2023/04/13 11:45:11;;;;;;;1.27;1.10;;;14.90;49.00;;;;;;5094259;28;20943;-62
2023/04/13 11:47:38;;;;;;;2.17;1.00;;;14.70;49.20;;;;;;5095282;28;20554;-64
2023/04/13 11:50:07;;;;;;;4.10;1.40;;;14.80;49.70;;;;;;5100431;28;20505;-64
2023/04/13 11:52:35;;;;;;;1.27;1.17;;;15.40;49.00;;;;;;5100366;28;20574;-64
2023/04/13 11:55:04;;;;;;;1.50;1.10;;;15.90;47.70;;;;;;5098374;28;20446;-64
2023/04/13 11:57:32;;;;;;;1.47;1.30;;;15.90;47.20;;;;;;5099604;28;20530;-63
2023/04/13 12:00:00;;;;;;;1.37;0.93;;;15.70;47.30;;;;;;5102464;28;20481;-64
2023/04/13 12:02:28;;;;;;;1.17;1.00;;;15.90;47.30;;;;;;5100512;28;20529;-63
2023/04/13 12:04:55;;;;;;;2.80;1.57;;;16.10;46.20;;;;;;5100249;28;20517;-63
2023/04/13 12:07:23;;;;;;;1.73;1.63;;;16.30;45.50;;;;;;5099700;28;20518;-63
2023/04/13 12:09:50;;;;;;;2.87;1.47;;;16.20;45.60;;;;;;5101191;28;20628;-63
2023/04/13 12:12:18;;;;;;;2.07;1.30;;;15.90;46.00;;;;;;5099777;28;20470;-64
2023/04/13 12:14:53;;;;;;;1.60;1.30;;;15.80;46.50;;;;;;5101054;28;20529;-65
2023/04/13 12:17:21;;;;;;;2.30;1.07;;;15.60;46.50;;;;;;5101241;28;20432;-62
2023/04/13 12:19:54;;;;;;;1.70;1.50;;;15.40;47.00;;;;;;5101880;28;20446;-63
2023/04/13 12:22:22;;;;;;;2.17;1.40;;;15.30;47.40;;;;;;5102333;28;20450;-63
2023/04/13 12:24:48;;;;;;;1.30;1.20;;;15.30;47.70;;;;;;5100873;28;20525;-63
2023/04/13 12:27:16;;;;;;;1.73;1.30;;;15.40;47.70;;;;;;5097568;28;20890;-64
2023/04/13 12:29:43;;;;;;;3.00;1.57;;;15.20;47.30;;;;;;5098280;28;20469;-63
2023/04/13 12:32:12;;;;;;;1.37;1.20;;;15.00;47.40;;;;;;5099286;28;20488;-63
2023/04/13 12:34:41;;;;;;;2.10;1.40;;;14.90;47.70;;;;;;5100996;28;20446;-62
2023/04/13 12:37:09;;;;;;;2.30;1.30;;;14.70;47.90;;;;;;5100099;28;20936;-64
2023/04/13 12:39:36;;;;;;;1.60;1.50;;;14.60;48.30;;;;;;5101201;28;20935;-64
2023/04/13 12:42:03;;;;;;;1.33;1.20;;;14.50;48.70;;;;;;5101030;28;20487;-64
2023/04/13 12:44:30;;;;;;;2.90;2.07;;;14.50;49.20;;;;;;5101542;28;20434;-63
2023/04/13 12:46:57;;;;;;;2.00;1.80;;;14.60;49.40;;;;;;5101035;28;20450;-63
2023/04/13 12:49:24;;;;;;;2.23;1.60;;;14.70;49.40;;;;;;5100957;28;20466;-64
2023/04/13 12:51:52;;;;;;;2.50;1.90;;;14.80;49.60;;;;;;5101558;28;20449;-64
2023/04/13 12:54:19;;;;;;;2.93;2.03;;;14.70;49.50;;;;;;5100800;28;20442;-64
2023/04/13 12:56:46;;;;;;;2.10;1.80;;;14.80;49.70;;;;;;5100003;28;20442;-63
2023/04/13 12:59:13;;;;;;;1.93;1.40;;;14.80;49.60;;;;;;5099682;28;20466;-62